• Join FlightAware (Why Join?)
  • Login
  • US Flag 
10:05PM EDT


 

Airport Tracker/Info


-or-


 

Live Flight TrackerFlight Track Log ✈ ERR736 ✈ 25-Sep-2013 ✈ PAFA / FAI - PAGA / GAL

Flight Track Log - Related Links

Times and Time Zones

All times are in EDT time to prevent confusion due to time zone crossing. See the ERR736 flight status page for this flight to view local times or setup timezone preferences in your user account.

Time Position Orientation Groundspeed Altitude Reporting Facility
EDT Latitude Longitude Course Direction KTS MPH feet Rate Location/Type
06:23PM 64.8667 -147.7167 269° West 170 196 4,100  Level Anchorage Center
06:24PM 64.9000 -147.7667 328° Northwest 180 207 5,900 1,740 Climbing Anchorage Center
06:25PM 64.9167 -147.8833 289° West 190 219 7,600 1,680 Climbing Anchorage Center
06:26PM 64.9000 -147.9833 249° West 160 184 9,400 1,800 Climbing Anchorage Center
06:27PM 64.8320 -148.7514 270° West  Level Estimated
06:27PM 64.8833 -148.0833 249° West 160 184 11,300  Level Anchorage Center
06:28PM 64.8305 -148.9008 269° West  Level FlightAware Approximate
06:28PM 64.8667 -148.1833 249° West 160 184 13,000  Level Anchorage Center
06:29PM 64.8500 -148.2667 245° Southwest 170 196 14,400 1,620 Climbing Anchorage Center
06:30PM 64.8333 -148.3833 251° West 170 196 16,300 1,560 Climbing Anchorage Center
06:31PM 64.8167 -148.4833 249° West 190 219 17,600 1,380 Climbing Anchorage Center
06:32PM 64.8000 -148.6000 251° West 190 219 19,100 1,380 Climbing Anchorage Center
06:33PM 64.8000 -148.7333 270° West 190 219 20,400 1,200 Climbing Anchorage Center
06:34PM 64.8167 -148.8500 289° West 190 219 21,600 960 Climbing Anchorage Center
06:35PM 64.8167 -148.9833 270° West 190 219 22,400 840 Climbing Anchorage Center
06:36PM 64.8167 -149.1167 270° West 200 230 23,300 780 Climbing Anchorage Center
06:37PM 64.8167 -149.2333 270° West 200 230 24,000 300 Climbing Anchorage Center
06:38PM 64.8167 -149.3667 270° West 210 242 24,000  Level Anchorage Center
06:39PM 64.8167 -149.5167 270° West 220 253 24,000  Level Anchorage Center
06:41PM 64.8167 -149.8167 270° West 230 265 24,000  Level Anchorage Center
06:42PM 64.8167 -149.9500 270° West 230 265 24,000  Level Anchorage Center
06:43PM 64.8333 -150.1000 285° West 220 253 24,000  Level Anchorage Center
06:44PM 64.8333 -150.2500 270° West 230 265 24,000  Level Anchorage Center
06:45PM 64.8333 -150.4000 270° West 230 265 24,000  Level Anchorage Center
06:46PM 64.8333 -150.5500 270° West 220 253 24,000  Level Anchorage Center
06:47PM 64.8333 -150.7000 270° West 230 265 24,000  Level Anchorage Center
06:48PM 64.8333 -150.8333 270° West 230 265 24,000  Level Anchorage Center
06:49PM 64.8333 -150.9833 270° West 230 265 24,000  Level Anchorage Center
06:50PM 64.8333 -151.1667 270° West 220 253 24,000  Level Anchorage Center
06:51PM 64.8333 -151.3167 270° West 230 265 24,000  Level Anchorage Center
06:52PM 64.8333 -151.4667 270° West 240 276 24,000  Level Anchorage Center
06:53PM 64.8333 -151.6333 270° West 230 265 24,000  Level Anchorage Center
06:54PM 64.8333 -151.7833 270° West 240 276 24,000  Level Anchorage Center
06:55PM 64.8333 -151.9500 270° West 250 288 24,000  Level Anchorage Center
06:56PM 64.8333 -152.0667 270° West 220 253 24,000  Level Anchorage Center
06:57PM 64.8333 -152.2167 270° West 240 276 24,000  Level Anchorage Center
06:58PM 64.8333 -152.3833 270° West 240 276 24,000  Level Anchorage Center
06:59PM 64.8167 -152.5333 255° West 250 288 24,000  Level Anchorage Center
07:00PM 64.8167 -152.7333 270° West 240 276 24,000  Level Anchorage Center
07:01PM 64.8167 -152.8833 270° West 240 276 24,000  Level Anchorage Center
07:02PM 64.8167 -153.0500 270° West 250 288 24,000  Level Anchorage Center
07:03PM 64.8167 -153.2167 270° West 250 288 24,000  Level Anchorage Center
07:04PM 64.8167 -153.3833 270° West 250 288 24,000  Level Anchorage Center
07:05PM 64.8167 -153.5500 270° West 260 299 24,000  Level Anchorage Center
07:06PM 64.8167 -153.7167 270° West 260 299 24,100  Climbing Anchorage Center
07:07PM 64.8000 -153.8833 257° West 260 299 24,100  Level Anchorage Center
07:08PM 64.8000 -154.0500 270° West 260 299 24,100  Level Anchorage Center
07:09PM 64.8000 -154.2167 270° West 260 299 24,100  Level Anchorage Center
07:10PM 64.8000 -154.3833 270° West 260 299 24,100  Level Anchorage Center
07:11PM 64.8000 -154.5500 270° West 250 288 24,100  Level Anchorage Center
07:12PM 64.8000 -154.7167 270° West 260 299 24,100  Level Anchorage Center
07:13PM 64.8000 -154.8833 270° West 250 288 24,100 -240 Level Anchorage Center
07:14PM 64.7833 -155.0333 255° West 250 288 23,700 -900 Descending Anchorage Center
07:15PM 64.7833 -155.2167 270° West 250 288 22,400 -1,260 Descending Anchorage Center
07:16PM 64.7833 -155.3833 270° West 250 288 21,200 -1,320 Descending Anchorage Center
07:18PM 64.7833 -155.7333 270° West 300 345 18,500 -1,500 Descending Anchorage Center
07:19PM 64.7667 -155.8667 254° West 220 253 16,800 -1,500 Descending Anchorage Center
07:20PM 64.7667 -156.0167 270° West 230 265 15,500 -1,320 Descending Anchorage Center
07:21PM 64.7667 -156.1833 270° West 250 288 14,200 -1,320 Descending Anchorage Center
07:22PM 64.7667 -156.3500 270° West 260 299 12,900 -1,320 Descending Anchorage Center
07:23PM 64.7500 -156.5000 255° West 250 288 11,600 -1,380 Descending Anchorage Center
07:24PM 64.7500 -156.6667 270° West 240 276 10,200 -1,440 Descending Anchorage Center
07:25PM 64.7500 -156.8167 270° West 230 265 8,800 -1,440 Descending Anchorage Center
07:26PM 64.7500 -156.9333 270° West 220 253 7,400 -1,440 Descending Anchorage Center
07:27PM 64.7333 -157.1167 258° West 230 265 6,000 -1,380 Descending Anchorage Center
07:28PM 64.7333 -157.2333 270° West 240 276 4,700 -960 Descending Anchorage Center
07:29PM 64.7333 -157.4000 270° West 200 230 4,100 -360 Descending Anchorage Center
07:30PM 64.7167 -157.5333 254° West 200 230 4,000 -60 Descending Anchorage Center
07:31PM 64.6833 -157.6167 227° Southwest 190 219 4,000  Level Anchorage Center
07:32PM 64.7000 -157.6833 300° West 210 242 4,000  Level Anchorage Center
07:33PM 64.7333 -157.6000 47° Northeast 160 184 4,000 -180 Level Anchorage Center
07:34PM 64.7333 -157.4500 90° East 210 242 3,700 -600 Descending Anchorage Center
07:35PM 64.7333 -157.3167 90° East 190 219 2,800 -900 Descending Anchorage Center
07:37PM 64.7349 -157.1247 90° East  Level Estimated